createdAt,value
2022-11-01T00:01:32.439Z,9.87
2022-11-01T00:03:58.968Z,9.86
2022-11-01T00:06:25.325Z,9.95
2022-11-01T00:08:52.751Z,9.86
2022-11-01T00:11:19.282Z,9.91
2022-11-01T00:13:46.737Z,9.80
2022-11-01T00:16:13.630Z,9.74
2022-11-01T00:18:40.028Z,9.83
2022-11-01T00:21:06.748Z,9.77
2022-11-01T00:23:36.237Z,9.65
2022-11-01T00:26:03.189Z,9.58
2022-11-01T00:28:31.888Z,9.63
2022-11-01T00:31:01.699Z,9.56
2022-11-01T00:33:28.098Z,9.58
2022-11-01T00:35:54.547Z,9.61
2022-11-01T00:38:20.977Z,9.57
2022-11-01T00:40:47.377Z,9.52
2022-11-01T00:43:14.163Z,9.49
2022-11-01T00:45:42.992Z,9.56
2022-11-01T00:48:12.007Z,9.53
2022-11-01T00:50:38.910Z,9.47
2022-11-01T00:53:05.321Z,9.52
2022-11-01T00:55:31.704Z,9.39
2022-11-01T00:57:58.041Z,9.45
2022-11-01T01:00:24.373Z,9.50
2022-11-01T01:02:50.857Z,9.49
2022-11-01T01:05:17.589Z,9.29
2022-11-01T01:07:44.283Z,9.23
2022-11-01T01:10:10.607Z,9.25
2022-11-01T01:12:36.922Z,9.35
2022-11-01T01:15:03.619Z,9.34
2022-11-01T01:17:33.650Z,9.33
2022-11-01T01:20:00.317Z,9.39
2022-11-01T01:22:27.138Z,9.27
2022-11-01T01:24:53.541Z,9.27
2022-11-01T01:27:20.489Z,9.21
2022-11-01T01:29:46.947Z,9.18
2022-11-01T01:32:17.611Z,9.13
2022-11-01T01:34:43.964Z,9.23
2022-11-01T01:37:10.482Z,9.26
2022-11-01T01:39:37.186Z,9.22
2022-11-01T01:42:12.974Z,9.21
2022-11-01T01:44:51.618Z,8.85
2022-11-01T01:47:28.539Z,9.13
2022-11-01T01:50:15.211Z,9.02
2022-11-01T01:52:56.539Z,9.09
2022-11-01T01:55:25.460Z,9.07
2022-11-01T01:57:53.630Z,8.96
2022-11-01T02:00:20.358Z,8.98
2022-11-01T02:02:46.705Z,9.06
2022-11-01T02:05:21.586Z,9.01
2022-11-01T02:07:48.796Z,8.83
2022-11-01T02:10:15.810Z,8.88
2022-11-01T02:12:48.855Z,9.01
2022-11-01T02:15:19.992Z,8.94
2022-11-01T02:17:55.200Z,9.05
2022-11-01T02:20:27.492Z,9.00
2022-11-01T02:23:12.299Z,8.84
2022-11-01T02:26:06.965Z,8.91
2022-11-01T02:28:39.506Z,8.83
2022-11-01T02:31:28.714Z,8.90
2022-11-01T02:33:57.873Z,8.90
2022-11-01T02:36:33.594Z,8.81
2022-11-01T02:39:08.405Z,8.75
2022-11-01T02:41:39.656Z,8.80
2022-11-01T02:44:25.605Z,8.93
2022-11-01T02:47:01.426Z,8.82
2022-11-01T02:49:34.425Z,8.80
2022-11-01T02:52:02.032Z,8.75
2022-11-01T02:54:33.152Z,8.82
2022-11-01T02:57:20.855Z,8.73
2022-11-01T02:59:48.790Z,8.90
2022-11-01T03:02:39.339Z,8.97
2022-11-01T03:05:24.716Z,8.92
2022-11-01T03:07:52.673Z,8.91
2022-11-01T03:10:22.324Z,9.01
2022-11-01T03:12:57.710Z,8.91
2022-11-01T03:15:28.961Z,8.85
2022-11-01T03:18:04.407Z,8.79
2022-11-01T03:20:47.531Z,8.84
2022-11-01T03:23:28.727Z,8.78
2022-11-01T03:25:57.245Z,8.83
2022-11-01T03:28:49.960Z,8.91
2022-11-01T03:31:19.334Z,8.85
2022-11-01T03:33:48.077Z,8.94
2022-11-01T03:36:16.088Z,8.98
2022-11-01T03:38:44.878Z,9.02
2022-11-01T03:41:16.845Z,8.89
2022-11-01T03:43:43.481Z,8.89
2022-11-01T03:46:10.247Z,8.82
2022-11-01T03:48:40.347Z,8.93
2022-11-01T03:51:06.721Z,8.86
2022-11-01T03:53:33.778Z,8.96
2022-11-01T03:56:00.630Z,8.88
2022-11-01T03:58:41.771Z,8.72
2022-11-01T04:01:09.306Z,8.78
2022-11-01T04:03:36.354Z,8.70
2022-11-01T04:06:03.082Z,8.66
2022-11-01T04:08:29.424Z,8.80
2022-11-01T04:10:55.826Z,8.76
2022-11-01T04:13:22.219Z,8.68
2022-11-01T04:16:07.103Z,8.80
2022-11-01T04:18:51.983Z,8.85
2022-11-01T04:21:19.913Z,8.87
2022-11-01T04:23:46.639Z,8.84
2022-11-01T04:26:14.261Z,8.72
2022-11-01T04:28:40.629Z,8.91
2022-11-01T04:31:07.611Z,8.96
2022-11-01T04:33:33.931Z,8.98
2022-11-01T04:36:06.894Z,8.76
2022-11-01T04:38:33.467Z,8.75
2022-11-01T04:40:59.870Z,8.75
2022-11-01T04:43:26.223Z,8.77
2022-11-01T04:45:57.760Z,8.69
2022-11-01T04:48:24.481Z,8.76
2022-11-01T04:50:50.792Z,8.77
2022-11-01T04:53:17.301Z,8.77
2022-11-01T04:55:43.635Z,8.69
2022-11-01T04:58:10.896Z,8.80
2022-11-01T05:00:38.119Z,8.60
2022-11-01T05:03:07.183Z,8.74
2022-11-01T05:05:34.696Z,8.70
2022-11-01T05:10:34.444Z,8.54
2022-11-01T05:13:01.892Z,8.68
2022-11-01T05:15:28.616Z,8.79
2022-11-01T05:17:55.183Z,8.68
2022-11-01T05:20:21.496Z,8.76
2022-11-01T05:22:48.966Z,8.67
2022-11-01T05:25:15.539Z,8.74
2022-11-01T05:27:41.923Z,8.74
2022-11-01T05:30:10.248Z,8.75
2022-11-01T05:32:37.921Z,8.66
2022-11-01T05:35:04.872Z,8.72
2022-11-01T05:37:31.632Z,8.64
2022-11-01T05:39:58.052Z,8.64
2022-11-01T05:42:24.355Z,8.64
2022-11-01T05:44:50.903Z,8.74
2022-11-01T05:47:17.716Z,8.69
2022-11-01T05:49:44.176Z,8.68
2022-11-01T05:52:10.580Z,8.66
2022-11-01T05:54:36.944Z,8.61
2022-11-01T05:57:04.822Z,8.60
2022-11-01T05:59:31.263Z,8.61
2022-11-01T06:01:57.817Z,8.69
2022-11-01T06:04:24.260Z,8.74
2022-11-01T06:06:50.614Z,8.74
2022-11-01T06:09:16.920Z,8.70
2022-11-01T06:11:44.322Z,8.71
2022-11-01T06:14:10.854Z,8.70
2022-11-01T06:16:37.310Z,8.72
2022-11-01T06:19:03.635Z,8.78
2022-11-01T06:21:30.493Z,8.64
2022-11-01T06:23:56.979Z,8.68
2022-11-01T06:26:23.455Z,8.87
2022-11-01T06:28:49.990Z,8.90
2022-11-01T06:31:16.319Z,8.82
2022-11-01T06:33:42.689Z,8.90
2022-11-01T06:36:09.238Z,8.95
2022-11-01T06:38:35.691Z,9.09
2022-11-01T06:41:03.303Z,9.15
2022-11-01T06:43:29.712Z,9.23
2022-11-01T06:45:58.621Z,9.25
2022-11-01T06:48:31.138Z,9.24
2022-11-01T06:50:57.667Z,9.38
2022-11-01T06:53:24.663Z,9.43
2022-11-01T06:55:52.296Z,9.38
2022-11-01T06:58:18.876Z,9.41
2022-11-01T07:00:45.221Z,9.44
2022-11-01T07:03:12.470Z,9.51
2022-11-01T07:05:39.296Z,9.38
2022-11-01T07:08:10.333Z,9.45
2022-11-01T07:10:39.132Z,9.55
2022-11-01T07:13:06.468Z,9.61
2022-11-01T07:15:33.253Z,9.67
2022-11-01T07:18:01.225Z,9.77
2022-11-01T07:20:29.013Z,9.79
2022-11-01T07:22:59.973Z,9.85
2022-11-01T07:25:27.290Z,9.92
2022-11-01T07:27:53.986Z,10.03
2022-11-01T07:30:20.690Z,10.14
2022-11-01T07:32:47.150Z,10.20
2022-11-01T07:35:13.725Z,10.32
2022-11-01T07:37:41.181Z,10.39
2022-11-01T07:40:07.764Z,10.47
2022-11-01T07:42:40.343Z,10.54
2022-11-01T07:45:12.737Z,10.50
2022-11-01T07:47:39.806Z,10.69
2022-11-01T07:50:07.090Z,10.77
2022-11-01T07:52:33.848Z,10.92
2022-11-01T07:55:00.288Z,11.07
2022-11-01T07:57:26.800Z,11.00
2022-11-01T07:59:53.195Z,10.88
2022-11-01T08:02:19.670Z,10.67
2022-11-01T08:04:47.078Z,10.66
2022-11-01T08:07:13.409Z,10.60
2022-11-01T08:09:42.258Z,10.67
2022-11-01T08:12:08.738Z,10.55
2022-11-01T08:14:35.073Z,10.44
2022-11-01T08:17:01.863Z,10.52
2022-11-01T08:19:28.339Z,10.61
2022-11-01T08:21:57.159Z,10.57
2022-11-01T08:24:23.507Z,10.71
2022-11-01T08:26:49.835Z,10.75
2022-11-01T08:29:16.179Z,10.76
2022-11-01T08:31:43.048Z,10.75
2022-11-01T08:34:13.203Z,10.91
2022-11-01T08:36:43.081Z,11.06
2022-11-01T08:41:41.061Z,11.33
2022-11-01T08:44:07.738Z,11.50
2022-11-01T08:46:34.162Z,11.63
2022-11-01T08:49:00.588Z,11.75
2022-11-01T08:51:27.781Z,11.95
2022-11-01T08:53:54.838Z,12.05
2022-11-01T08:56:21.805Z,12.20
2022-11-01T08:58:51.958Z,12.34
2022-11-01T09:01:18.413Z,12.30
2022-11-01T09:03:44.932Z,12.54
2022-11-01T09:06:11.409Z,12.28
2022-11-01T09:08:37.835Z,12.63
2022-11-01T09:11:06.281Z,12.63
2022-11-01T09:13:33.358Z,12.64
2022-11-01T09:16:02.414Z,12.53
2022-11-01T09:18:29.214Z,12.64
2022-11-01T09:20:56.223Z,12.91
2022-11-01T09:23:22.857Z,13.69
2022-11-01T09:25:49.393Z,14.27
2022-11-01T09:28:15.821Z,14.77
2022-11-01T09:30:49.871Z,14.94
2022-11-01T09:33:22.493Z,15.08
2022-11-01T09:35:59.179Z,15.35
2022-11-01T09:38:27.319Z,15.63
2022-11-01T09:41:13.894Z,15.65
2022-11-01T09:43:42.991Z,15.68
2022-11-01T09:46:13.853Z,15.98
2022-11-01T09:48:41.659Z,16.86
2022-11-01T09:51:12.259Z,17.12
2022-11-01T09:53:42.067Z,17.49
2022-11-01T09:56:16.792Z,17.92
2022-11-01T09:58:52.029Z,18.04
2022-11-01T10:01:24.285Z,17.71
2022-11-01T10:03:59.831Z,17.21
2022-11-01T10:06:31.701Z,16.48
2022-11-01T10:09:02.270Z,16.02
2022-11-01T10:11:35.849Z,15.82
2022-11-01T10:14:05.304Z,15.53
2022-11-01T10:16:43.721Z,15.80
2022-11-01T10:19:11.454Z,15.82
2022-11-01T10:21:42.970Z,15.83
2022-11-01T10:24:16.587Z,15.76
2022-11-01T10:26:45.328Z,15.68
2022-11-01T10:29:20.523Z,15.89
2022-11-01T10:31:49.376Z,16.01
2022-11-01T10:34:22.968Z,16.05
2022-11-01T10:36:50.612Z,16.03
2022-11-01T10:42:12.886Z,15.82
2022-11-01T10:44:59.541Z,15.61
2022-11-01T10:47:28.139Z,15.66
2022-11-01T10:50:06.929Z,15.97
2022-11-01T10:52:57.321Z,16.08
2022-11-01T10:55:27.855Z,15.52
2022-11-01T10:58:03.012Z,15.81
2022-11-01T11:00:30.975Z,15.40
2022-11-01T11:02:58.734Z,15.40
2022-11-01T11:05:26.209Z,15.67
2022-11-01T11:07:52.550Z,15.80
2022-11-01T11:10:23.968Z,16.00
2022-11-01T11:12:52.649Z,15.96
2022-11-01T11:15:25.662Z,15.93
2022-11-01T11:17:56.026Z,16.04
2022-11-01T11:20:26.387Z,16.22
2022-11-01T11:22:53.880Z,16.31
2022-11-01T11:25:22.651Z,16.17
2022-11-01T11:27:56.615Z,16.16
2022-11-01T11:30:28.480Z,16.43
2022-11-01T11:32:55.843Z,16.50
2022-11-01T11:35:24.436Z,16.56
2022-11-01T11:37:57.427Z,16.29
2022-11-01T11:40:25.783Z,16.23
2022-11-01T11:42:53.309Z,16.41
2022-11-01T11:45:24.924Z,16.43
2022-11-01T11:47:51.639Z,16.49
2022-11-01T11:50:20.762Z,16.53
2022-11-01T11:53:16.920Z,16.43
2022-11-01T11:55:45.798Z,16.60
2022-11-01T11:58:35.544Z,16.69
2022-11-01T12:01:06.820Z,16.44
2022-11-01T12:03:44.632Z,16.76
2022-11-01T12:06:17.139Z,16.82
2022-11-01T12:08:45.305Z,16.76
2022-11-01T12:11:12.318Z,16.71
2022-11-01T12:13:41.251Z,16.73
2022-11-01T12:16:07.764Z,16.67
2022-11-01T12:18:34.195Z,16.77
2022-11-01T12:21:00.740Z,16.78
2022-11-01T12:23:30.818Z,16.73
2022-11-01T12:25:59.524Z,16.83
2022-11-01T12:28:26.101Z,16.93
2022-11-01T12:30:56.353Z,16.93
2022-11-01T12:33:29.772Z,17.13
2022-11-01T12:35:57.290Z,17.09
2022-11-01T12:38:37.028Z,17.30
2022-11-01T12:41:12.782Z,17.47
2022-11-01T12:43:58.915Z,17.35
2022-11-01T12:46:31.002Z,17.53
2022-11-01T12:49:01.044Z,17.57
2022-11-01T12:51:30.327Z,17.64
2022-11-01T12:54:00.438Z,17.65
2022-11-01T12:56:27.204Z,17.57
2022-11-01T12:58:55.713Z,17.61
2022-11-01T13:01:22.288Z,17.53
2022-11-01T13:04:07.310Z,17.54
2022-11-01T13:06:52.619Z,17.63
2022-11-01T13:09:22.138Z,17.64
2022-11-01T13:11:57.864Z,17.92
2022-11-01T13:14:33.896Z,17.98
2022-11-01T13:17:23.374Z,18.05
2022-11-01T13:19:56.669Z,17.65
2022-11-01T13:22:28.598Z,17.63
2022-11-01T13:25:00.566Z,17.74
2022-11-01T13:27:33.518Z,17.64
2022-11-01T13:30:02.955Z,17.66
2022-11-01T13:32:45.434Z,17.72
2022-11-01T13:35:12.590Z,17.86
2022-11-01T13:37:49.063Z,18.06
2022-11-01T13:40:27.998Z,18.05
2022-11-01T13:42:57.758Z,18.15
2022-11-01T13:45:42.573Z,18.13
2022-11-01T13:48:35.679Z,18.06
2022-11-01T13:51:02.443Z,17.82
2022-11-01T13:53:35.326Z,17.78
2022-11-01T13:56:08.506Z,17.65
2022-11-01T13:58:35.252Z,17.82
2022-11-01T14:01:25.109Z,17.84
2022-11-01T14:04:06.233Z,17.80
2022-11-01T14:06:36.806Z,17.67
2022-11-01T14:09:19.243Z,17.77
2022-11-01T14:11:49.507Z,17.84
2022-11-01T14:14:31.030Z,17.91
2022-11-01T14:17:15.930Z,17.84
2022-11-01T14:19:43.768Z,17.55
2022-11-01T14:22:22.196Z,17.64
2022-11-01T14:24:58.605Z,17.64
2022-11-01T14:27:25.154Z,17.61
2022-11-01T14:29:52.328Z,17.47
2022-11-01T14:32:19.689Z,17.47
2022-11-01T14:34:55.355Z,17.46
2022-11-01T14:37:23.637Z,17.45
2022-11-01T14:40:22.393Z,17.31
2022-11-01T14:42:50.491Z,17.17
2022-11-01T14:45:28.457Z,17.04
2022-11-01T14:47:58.146Z,17.05
2022-11-01T14:50:24.490Z,17.11
2022-11-01T14:52:55.280Z,17.00
2022-11-01T14:55:32.306Z,17.05
2022-11-01T14:58:09.221Z,17.02
2022-11-01T15:00:35.769Z,17.01
2022-11-01T15:03:02.546Z,16.96
2022-11-01T15:05:29.182Z,16.98
2022-11-01T15:07:56.601Z,16.92
2022-11-01T15:10:23.380Z,16.90
2022-11-01T15:12:54.000Z,16.82
2022-11-01T15:15:22.494Z,16.72
2022-11-01T15:17:56.889Z,16.79
2022-11-01T15:20:25.208Z,16.76
2022-11-01T15:22:54.293Z,16.73
2022-11-01T15:25:22.600Z,16.57
2022-11-01T15:27:49.735Z,16.62
2022-11-01T15:30:19.758Z,16.55
2022-11-01T15:32:46.107Z,16.48
2022-11-01T15:35:23.594Z,16.51
2022-11-01T15:37:53.310Z,16.22
2022-11-01T15:40:33.014Z,16.23
2022-11-01T15:43:00.871Z,16.39
2022-11-01T15:45:28.010Z,16.31
2022-11-01T15:47:54.760Z,16.35
2022-11-01T15:50:21.146Z,16.25
2022-11-01T15:52:47.580Z,16.22
2022-11-01T15:55:28.965Z,16.25
2022-11-01T15:58:05.257Z,16.17
2022-11-01T16:00:41.918Z,16.14
2022-11-01T16:03:17.160Z,16.16
2022-11-01T16:05:48.336Z,16.07
2022-11-01T16:08:22.777Z,16.10
2022-11-01T16:10:49.729Z,16.11
2022-11-01T16:13:17.623Z,16.06
2022-11-01T16:15:58.642Z,16.05
2022-11-01T16:18:27.873Z,15.98
2022-11-01T16:21:00.895Z,16.05
2022-11-01T16:23:32.387Z,15.96
2022-11-01T16:26:06.594Z,15.86
2022-11-01T16:28:40.598Z,15.79
2022-11-01T16:31:22.669Z,15.70
2022-11-01T16:33:49.689Z,15.62
2022-11-01T16:36:19.411Z,15.46
2022-11-01T16:38:46.849Z,15.43
2022-11-01T16:41:16.555Z,15.35
2022-11-01T16:43:43.373Z,15.21
2022-11-01T16:46:09.742Z,15.16
2022-11-01T16:48:50.568Z,15.10
2022-11-01T16:51:17.420Z,15.03
2022-11-01T16:53:43.819Z,14.92
2022-11-01T16:56:36.555Z,14.95
2022-11-01T16:59:28.397Z,14.89
2022-11-01T17:01:55.990Z,14.87
2022-11-01T17:04:22.798Z,14.91
2022-11-01T17:06:49.608Z,14.88
2022-11-01T17:09:17.312Z,14.95
2022-11-01T17:11:50.935Z,14.79
2022-11-01T17:14:19.563Z,14.91
2022-11-01T17:16:47.582Z,14.86
2022-11-01T17:19:18.496Z,14.78
2022-11-01T17:21:46.037Z,14.70
2022-11-01T17:24:13.399Z,14.68
2022-11-01T17:26:40.815Z,14.62
2022-11-01T17:29:08.631Z,14.59
2022-11-01T17:31:37.227Z,14.49
2022-11-01T17:34:05.784Z,14.52
2022-11-01T17:36:32.463Z,14.42
2022-11-01T17:38:59.971Z,14.46
2022-11-01T17:41:26.391Z,14.38
2022-11-01T17:43:53.900Z,14.27
2022-11-01T17:46:24.073Z,14.34
2022-11-01T17:48:50.561Z,14.38
2022-11-01T17:51:17.976Z,14.28
2022-11-01T17:53:45.428Z,14.20
2022-11-01T17:56:11.730Z,14.23
2022-11-01T17:58:38.100Z,14.17
2022-11-01T18:01:04.608Z,14.07
2022-11-01T18:03:31.821Z,13.95
2022-11-01T18:05:59.331Z,13.86
2022-11-01T18:08:27.332Z,13.81
2022-11-01T18:11:12.232Z,13.76
2022-11-01T18:14:03.546Z,13.69
2022-11-01T18:16:45.602Z,13.62
2022-11-01T18:19:14.945Z,13.56
2022-11-01T18:21:50.628Z,13.59
2022-11-01T18:24:22.377Z,13.49
2022-11-01T18:26:49.236Z,13.55
2022-11-01T18:29:21.244Z,13.42
2022-11-01T18:32:02.973Z,13.45
2022-11-01T18:34:40.253Z,13.37
2022-11-01T18:37:15.391Z,13.22
2022-11-01T18:39:56.685Z,13.04
2022-11-01T18:42:24.471Z,12.99
2022-11-01T18:44:51.448Z,13.06
2022-11-01T18:47:23.301Z,12.95
2022-11-01T18:49:50.113Z,12.90
2022-11-01T18:52:19.093Z,12.79
2022-11-01T18:54:56.748Z,12.74
2022-11-01T18:57:24.702Z,12.64
2022-11-01T18:59:52.914Z,12.72
2022-11-01T19:02:21.375Z,12.57
2022-11-01T19:04:49.780Z,12.51
2022-11-01T19:07:21.554Z,12.58
2022-11-01T19:09:47.865Z,12.58
2022-11-01T19:12:16.153Z,12.54
2022-11-01T19:14:43.294Z,12.23
2022-11-01T19:17:29.502Z,12.24
2022-11-01T19:19:59.751Z,12.37
2022-11-01T19:22:31.266Z,12.32
2022-11-01T19:24:59.828Z,12.21
2022-11-01T19:27:27.388Z,12.12
2022-11-01T19:29:57.970Z,12.08
2022-11-01T19:32:24.784Z,11.95
2022-11-01T19:34:52.454Z,12.05
2022-11-01T19:37:22.173Z,12.11
2022-11-01T19:39:48.578Z,11.89
2022-11-01T19:42:35.209Z,11.82
2022-11-01T19:45:25.866Z,11.77
2022-11-01T19:47:52.578Z,11.76
2022-11-01T19:50:23.527Z,11.87
2022-11-01T19:52:51.779Z,11.73
2022-11-01T19:55:37.474Z,11.66
2022-11-01T19:58:24.875Z,11.57
2022-11-01T20:01:10.597Z,11.60
2022-11-01T20:03:42.906Z,11.58
2022-11-01T20:06:16.539Z,11.58
2022-11-01T20:08:45.220Z,11.51
2022-11-01T20:11:12.458Z,11.38
2022-11-01T20:13:38.873Z,11.26
2022-11-01T20:16:05.358Z,11.24
2022-11-01T20:18:31.674Z,11.29
2022-11-01T20:20:58.658Z,11.27
2022-11-01T20:23:26.723Z,11.21
2022-11-01T20:25:53.767Z,11.07
2022-11-01T20:28:20.111Z,11.01
2022-11-01T20:30:46.531Z,10.94
2022-11-01T20:33:13.948Z,10.93
2022-11-01T20:35:40.339Z,10.84
2022-11-01T20:38:10.227Z,11.00
2022-11-01T20:40:36.599Z,11.00
2022-11-01T20:43:03.274Z,10.95
2022-11-01T20:45:29.896Z,11.00
2022-11-01T20:47:57.216Z,11.00
2022-11-01T20:50:23.545Z,10.80
2022-11-01T20:52:49.878Z,10.75
2022-11-01T20:55:17.135Z,10.88
2022-11-01T20:57:43.766Z,10.95
2022-11-01T21:00:13.191Z,10.96
2022-11-01T21:02:40.120Z,10.95
2022-11-01T21:05:23.114Z,10.83
2022-11-01T21:07:52.712Z,10.57
2022-11-01T21:10:37.964Z,10.69
2022-11-01T21:13:18.995Z,10.76
2022-11-01T21:15:48.010Z,10.82
2022-11-01T21:18:14.403Z,10.95
2022-11-01T21:20:45.195Z,11.00
2022-11-01T21:23:20.895Z,11.02
2022-11-01T21:25:50.816Z,10.99
2022-11-01T21:28:31.166Z,10.98
2022-11-01T21:31:01.952Z,10.83
2022-11-01T21:33:36.482Z,10.85
2022-11-01T21:36:03.840Z,10.84
2022-11-01T21:38:41.021Z,10.80
2022-11-01T21:41:23.147Z,10.82
2022-11-01T21:43:49.583Z,10.46
2022-11-01T21:46:20.778Z,10.69
2022-11-01T21:48:49.251Z,10.80
2022-11-01T21:51:15.570Z,10.73
2022-11-01T21:53:41.961Z,10.77
2022-11-01T21:56:08.763Z,10.83
2022-11-01T21:58:35.173Z,10.83
2022-11-01T22:01:01.599Z,10.83
2022-11-01T22:03:27.957Z,10.68
2022-11-01T22:05:54.300Z,10.76
2022-11-01T22:08:20.615Z,10.82
2022-11-01T22:10:46.956Z,10.70
2022-11-01T22:13:13.785Z,10.68
2022-11-01T22:15:40.289Z,10.67
2022-11-01T22:18:06.651Z,10.64
2022-11-01T22:20:33.060Z,10.53
2022-11-01T22:22:59.447Z,10.67
2022-11-01T22:25:25.767Z,10.67
2022-11-01T22:27:52.091Z,10.46
2022-11-01T22:30:18.517Z,10.65
2022-11-01T22:32:44.858Z,10.70
2022-11-01T22:35:11.246Z,10.42
2022-11-01T22:37:37.599Z,10.59
2022-11-01T22:40:11.303Z,10.52
2022-11-01T22:42:37.627Z,10.60
2022-11-01T22:45:09.513Z,10.56
2022-11-01T22:47:36.002Z,10.57
2022-11-01T22:50:02.956Z,10.65
2022-11-01T22:52:38.807Z,10.64
2022-11-01T22:55:11.318Z,10.62
2022-11-01T22:57:51.058Z,10.60
2022-11-01T23:00:28.616Z,10.44
2022-11-01T23:02:58.590Z,10.59
2022-11-01T23:05:25.612Z,10.47
2022-11-01T23:07:56.369Z,10.42
2022-11-01T23:10:22.696Z,10.36
2022-11-01T23:13:09.414Z,10.31
2022-11-01T23:15:36.538Z,10.32
2022-11-01T23:18:15.596Z,10.24
2022-11-01T23:20:42.858Z,10.18
2022-11-01T23:23:17.987Z,10.18
2022-11-01T23:25:44.302Z,10.30
2022-11-01T23:28:11.415Z,10.40
2022-11-01T23:30:37.825Z,10.10
2022-11-01T23:33:05.585Z,10.33
2022-11-01T23:35:32.147Z,10.42
2022-11-01T23:37:58.650Z,10.40
2022-11-01T23:40:31.122Z,10.40
2022-11-01T23:42:57.553Z,10.22
2022-11-01T23:45:30.811Z,9.91
2022-11-01T23:47:57.131Z,9.96
2022-11-01T23:50:29.260Z,9.78
2022-11-01T23:52:57.068Z,9.78
2022-11-01T23:55:29.321Z,10.06
2022-11-01T23:58:16.127Z,10.06
